sensor_id;sensor_type;location;lat;lon;timestamp;pressure;altitude;pressure_sealevel;temperature;humidity
5988;BME280;3021;51.000;6.980;2023-01-31T00:01:21;66897.31;;;5.41;100.00
5988;BME280;3021;51.000;6.980;2023-01-31T00:03:47;66893.16;;;5.35;100.00
5988;BME280;3021;51.000;6.980;2023-01-31T00:08:41;66905.81;;;5.46;100.00
5988;BME280;3021;51.000;6.980;2023-01-31T00:11:07;66896.03;;;5.38;100.00
5988;BME280;3021;51.000;6.980;2023-01-31T00:13:32;66892.56;;;5.34;100.00
5988;BME280;3021;51.000;6.980;2023-01-31T00:15:58;66892.16;;;5.36;100.00
5988;BME280;3021;51.000;6.980;2023-01-31T00:18:23;66904.06;;;5.45;100.00
5988;BME280;3021;51.000;6.980;2023-01-31T00:20:49;66903.66;;;5.47;100.00
5988;BME280;3021;51.000;6.980;2023-01-31T00:23:14;66892.88;;;5.40;100.00
5988;BME280;3021;51.000;6.980;2023-01-31T00:25:40;66898.31;;;5.40;100.00
5988;BME280;3021;51.000;6.980;2023-01-31T00:28:05;66901.34;;;5.45;100.00
5988;BME280;3021;51.000;6.980;2023-01-31T00:30:31;66906.38;;;5.47;100.00
5988;BME280;3021;51.000;6.980;2023-01-31T00:32:56;66899.22;;;5.45;100.00
5988;BME280;3021;51.000;6.980;2023-01-31T00:35:21;66894.44;;;5.39;100.00
5988;BME280;3021;51.000;6.980;2023-01-31T00:37:47;66889.28;;;5.34;100.00
5988;BME280;3021;51.000;6.980;2023-01-31T00:40:12;66901.75;;;5.43;100.00
5988;BME280;3021;51.000;6.980;2023-01-31T00:42:37;66886.09;;;5.26;100.00
5988;BME280;3021;51.000;6.980;2023-01-31T00:45:03;66889.28;;;5.34;100.00
5988;BME280;3021;51.000;6.980;2023-01-31T00:47:28;66879.34;;;5.23;100.00
5988;BME280;3021;51.000;6.980;2023-01-31T00:49:54;66877.44;;;5.18;100.00
5988;BME280;3021;51.000;6.980;2023-01-31T00:52:20;66878.34;;;5.24;100.00
5988;BME280;3021;51.000;6.980;2023-01-31T00:54:45;66885.41;;;5.33;100.00
5988;BME280;3021;51.000;6.980;2023-01-31T00:57:10;66889.09;;;5.31;100.00
5988;BME280;3021;51.000;6.980;2023-01-31T00:59:36;66891.00;;;5.35;100.00
5988;BME280;3021;51.000;6.980;2023-01-31T01:02:01;66873.44;;;5.15;100.00
5988;BME280;3021;51.000;6.980;2023-01-31T01:04:26;66848.84;;;4.95;100.00
5988;BME280;3021;51.000;6.980;2023-01-31T01:06:51;66834.63;;;4.85;100.00
5988;BME280;3021;51.000;6.980;2023-01-31T01:09:17;66842.53;;;4.90;100.00
5988;BME280;3021;51.000;6.980;2023-01-31T01:11:42;66835.38;;;4.88;100.00
5988;BME280;3021;51.000;6.980;2023-01-31T01:14:07;66840.25;;;4.88;100.00
5988;BME280;3021;51.000;6.980;2023-01-31T01:16:36;66846.56;;;4.93;100.00
5988;BME280;3021;51.000;6.980;2023-01-31T01:19:14;66830.47;;;4.79;100.00
5988;BME280;3021;51.000;6.980;2023-01-31T01:21:39;66825.44;;;4.77;100.00
5988;BME280;3021;51.000;6.980;2023-01-31T01:24:07;66844.84;;;4.92;100.00
5988;BME280;3021;51.000;6.980;2023-01-31T01:26:35;66851.16;;;4.97;100.00
5988;BME280;3021;51.000;6.980;2023-01-31T01:29:01;66855.19;;;5.01;100.00
5988;BME280;3021;51.000;6.980;2023-01-31T01:31:27;66853.19;;;5.04;100.00
5988;BME280;3021;51.000;6.980;2023-01-31T01:34:01;66856.75;;;5.00;100.00
5988;BME280;3021;51.000;6.980;2023-01-31T01:36:28;66855.75;;;5.01;100.00
5988;BME280;3021;51.000;6.980;2023-01-31T01:38:54;66851.16;;;4.97;100.00
5988;BME280;3021;51.000;6.980;2023-01-31T01:41:20;66845.41;;;4.92;100.00
5988;BME280;3021;51.000;6.980;2023-01-31T01:43:54;66838.09;;;4.88;100.00
5988;BME280;3021;51.000;6.980;2023-01-31T01:46:33;66842.53;;;4.90;100.00
5988;BME280;3021;51.000;6.980;2023-01-31T01:49:05;66855.34;;;5.04;100.00
5988;BME280;3021;51.000;6.980;2023-01-31T01:51:37;66840.53;;;4.93;100.00
5988;BME280;3021;51.000;6.980;2023-01-31T01:54:05;66854.19;;;5.02;100.00
5988;BME280;3021;51.000;6.980;2023-01-31T01:56:36;66852.31;;;4.98;100.00
5988;BME280;3021;51.000;6.980;2023-01-31T01:59:07;66854.63;;;5.00;100.00
5988;BME280;3021;51.000;6.980;2023-01-31T02:01:36;66848.44;;;4.97;100.00
5988;BME280;3021;51.000;6.980;2023-01-31T02:04:04;66847.88;;;4.97;100.00
5988;BME280;3021;51.000;6.980;2023-01-31T02:06:31;66846.56;;;4.93;100.00
5988;BME280;3021;51.000;6.980;2023-01-31T02:08:56;66850.56;;;4.97;100.00
5988;BME280;3021;51.000;6.980;2023-01-31T02:11:30;66847.28;;;4.96;100.00
5988;BME280;3021;51.000;6.980;2023-01-31T02:14:07;66846.72;;;4.96;100.00
5988;BME280;3021;51.000;6.980;2023-01-31T02:16:33;66836.38;;;4.87;100.00
5988;BME280;3021;51.000;6.980;2023-01-31T02:18:59;66832.34;;;4.83;100.00
5988;BME280;3021;51.000;6.980;2023-01-31T02:21:50;66840.25;;;4.88;100.00
5988;BME280;3021;51.000;6.980;2023-01-31T02:24:31;66836.78;;;4.84;100.00
5988;BME280;3021;51.000;6.980;2023-01-31T02:33:22;66818.81;;;4.66;100.00
5988;BME280;3021;51.000;6.980;2023-01-31T02:38:51;66804.00;;;4.55;100.00
5988;BME280;3021;51.000;6.980;2023-01-31T02:41:37;66790.97;;;4.46;100.00
5988;BME280;3021;51.000;6.980;2023-01-31T02:44:31;66769.69;;;4.27;100.00
5988;BME280;3021;51.000;6.980;2023-01-31T02:50:04;66782.34;;;4.38;100.00
5988;BME280;3021;51.000;6.980;2023-01-31T02:55:26;66793.09;;;4.45;100.00
5988;BME280;3021;51.000;6.980;2023-01-31T02:58:14;66793.69;;;4.46;100.00
5988;BME280;3021;51.000;6.980;2023-01-31T03:00:43;66782.16;;;4.36;100.00
5988;BME280;3021;51.000;6.980;2023-01-31T03:03:24;66779.16;;;4.30;100.00
5988;BME280;3021;51.000;6.980;2023-01-31T03:08:56;66770.28;;;4.27;100.00
5988;BME280;3021;51.000;6.980;2023-01-31T03:11:37;66763.19;;;4.19;100.00
5988;BME280;3021;51.000;6.980;2023-01-31T03:16:51;66774.13;;;4.28;100.00
5988;BME280;3021;51.000;6.980;2023-01-31T03:22:10;66761.34;;;4.14;100.00
5988;BME280;3021;51.000;6.980;2023-01-31T03:24:42;66747.69;;;4.05;100.00
5988;BME280;3021;51.000;6.980;2023-01-31T03:27:08;66731.63;;;3.90;100.00
5988;BME280;3021;51.000;6.980;2023-01-31T03:29:36;66729.91;;;3.89;100.00
5988;BME280;3021;51.000;6.980;2023-01-31T03:32:55;66728.75;;;3.88;100.00
5988;BME280;3021;51.000;6.980;2023-01-31T03:34:54;66726.28;;;3.83;100.00
5988;BME280;3021;51.000;6.980;2023-01-31T03:37:28;66710.50;;;3.74;100.00
5988;BME280;3021;51.000;6.980;2023-01-31T03:40:09;66702.31;;;3.64;100.00
5988;BME280;3021;51.000;6.980;2023-01-31T03:46:00;66681.63;;;3.45;100.00
5988;BME280;3021;51.000;6.980;2023-01-31T03:48:30;66670.16;;;3.35;100.00
5988;BME280;3021;51.000;6.980;2023-01-31T03:51:03;66659.97;;;3.28;100.00
5988;BME280;3021;51.000;6.980;2023-01-31T03:53:37;66656.38;;;3.23;100.00
5988;BME280;3021;51.000;6.980;2023-01-31T03:56:12;66655.22;;;3.22;100.00
5988;BME280;3021;51.000;6.980;2023-01-31T03:58:42;66642.59;;;3.10;100.00
5988;BME280;3021;51.000;6.980;2023-01-31T04:01:09;66644.16;;;3.09;100.00
5988;BME280;3021;51.000;6.980;2023-01-31T04:03:40;66640.88;;;3.09;100.00
5988;BME280;3021;51.000;6.980;2023-01-31T04:06:08;66631.13;;;3.00;100.00
5988;BME280;3021;51.000;6.980;2023-01-31T04:08:34;66626.69;;;2.99;100.00
5988;BME280;3021;51.000;6.980;2023-01-31T04:11:03;66634.25;;;2.98;100.00
5988;BME280;3021;51.000;6.980;2023-01-31T04:13:29;66625.94;;;2.96;100.00
5988;BME280;3021;51.000;6.980;2023-01-31T04:15:55;66621.34;;;2.91;100.00
5988;BME280;3021;51.000;6.980;2023-01-31T04:18:20;66622.50;;;2.92;100.00
5988;BME280;3021;51.000;6.980;2023-01-31T04:20:45;66617.34;;;2.88;100.00
5988;BME280;3021;51.000;6.980;2023-01-31T04:23:10;66617.91;;;2.88;100.00
5988;BME280;3021;51.000;6.980;2023-01-31T04:25:36;66615.63;;;2.86;100.00
5988;BME280;3021;51.000;6.980;2023-01-31T04:28:01;66612.19;;;2.83;100.00
5988;BME280;3021;51.000;6.980;2023-01-31T04:30:26;66608.88;;;2.83;100.00
5988;BME280;3021;51.000;6.980;2023-01-31T04:32:52;66606.84;;;2.76;100.00
5988;BME280;3021;51.000;6.980;2023-01-31T04:35:17;66598.41;;;2.71;100.00
5988;BME280;3021;51.000;6.980;2023-01-31T04:37:43;66597.09;;;2.67;100.00
5988;BME280;3021;51.000;6.980;2023-01-31T04:40:08;66600.53;;;2.70;100.00
5988;BME280;3021;51.000;6.980;2023-01-31T04:42:34;66601.69;;;2.71;100.00
5988;BME280;3021;51.000;6.980;2023-01-31T04:44:59;66593.25;;;2.66;100.00
5988;BME280;3021;51.000;6.980;2023-01-31T04:47:24;66588.09;;;2.62;100.00
5988;BME280;3021;51.000;6.980;2023-01-31T04:49:50;66589.63;;;2.61;100.00
5988;BME280;3021;51.000;6.980;2023-01-31T04:52:15;66583.50;;;2.57;100.00
5988;BME280;3021;51.000;6.980;2023-01-31T04:54:40;66589.22;;;2.63;100.00
5988;BME280;3021;51.000;6.980;2023-01-31T04:57:06;66587.91;;;2.59;100.00
5988;BME280;3021;51.000;6.980;2023-01-31T04:59:31;66583.91;;;2.55;100.00
5988;BME280;3021;51.000;6.980;2023-01-31T05:01:57;66587.91;;;2.59;100.00
5988;BME280;3021;51.000;6.980;2023-01-31T05:04:22;66590.78;;;2.62;100.00
5988;BME280;3021;51.000;6.980;2023-01-31T05:06:48;66585.78;;;2.59;100.00
5988;BME280;3021;51.000;6.980;2023-01-31T05:09:13;66584.06;;;2.58;100.00
5988;BME280;3021;51.000;6.980;2023-01-31T05:11:38;66593.06;;;2.64;100.00
5988;BME280;3021;51.000;6.980;2023-01-31T05:14:04;66592.09;;;2.65;100.00
5988;BME280;3021;51.000;6.980;2023-01-31T05:16:29;66591.09;;;2.67;100.00
5988;BME280;3021;51.000;6.980;2023-01-31T05:18:55;66590.38;;;2.64;100.00
5988;BME280;3021;51.000;6.980;2023-01-31T05:21:20;66587.50;;;2.61;100.00
5988;BME280;3021;51.000;6.980;2023-01-31T05:23:45;66587.66;;;2.64;100.00
5988;BME280;3021;51.000;6.980;2023-01-31T05:26:11;66600.28;;;2.75;100.00
5988;BME280;3021;51.000;6.980;2023-01-31T05:28:36;66616.03;;;2.84;100.00
5988;BME280;3021;51.000;6.980;2023-01-31T05:31:04;66626.53;;;2.96;100.00
5988;BME280;3021;51.000;6.980;2023-01-31T05:33:30;66647.59;;;3.13;100.00
5988;BME280;3021;51.000;6.980;2023-01-31T05:35:58;66655.81;;;3.22;100.00
5988;BME280;3021;51.000;6.980;2023-01-31T05:38:24;66666.16;;;3.32;100.00
5988;BME280;3021;51.000;6.980;2023-01-31T05:40:50;66667.44;;;3.35;100.00
5988;BME280;3021;51.000;6.980;2023-01-31T05:43:15;66677.19;;;3.44;100.00
5988;BME280;3021;51.000;6.980;2023-01-31T05:45:40;66686.66;;;3.48;100.00
5988;BME280;3021;51.000;6.980;2023-01-31T05:48:06;66687.38;;;3.51;100.00
5988;BME280;3021;51.000;6.980;2023-01-31T05:50:31;66701.00;;;3.60;100.00
5988;BME280;3021;51.000;6.980;2023-01-31T05:52:58;66709.78;;;3.71;100.00
5988;BME280;3021;51.000;6.980;2023-01-31T05:55:24;66713.78;;;3.74;100.00
5988;BME280;3021;51.000;6.980;2023-01-31T05:57:51;66716.66;;;3.77;100.00
5988;BME280;3021;51.000;6.980;2023-01-31T06:00:17;66723.41;;;3.80;100.00
5988;BME280;3021;51.000;6.980;2023-01-31T06:02:42;66736.63;;;3.92;100.00
5988;BME280;3021;51.000;6.980;2023-01-31T06:05:08;66740.22;;;3.98;100.00
5988;BME280;3021;51.000;6.980;2023-01-31T06:07:34;66740.22;;;3.98;100.00
5988;BME280;3021;51.000;6.980;2023-01-31T06:10:00;66737.78;;;3.93;100.00
5988;BME280;3021;51.000;6.980;2023-01-31T06:12:25;66739.50;;;3.95;100.00
5988;BME280;3021;51.000;6.980;2023-01-31T06:14:51;66734.47;;;3.93;100.00
5988;BME280;3021;51.000;6.980;2023-01-31T06:17:16;66730.47;;;3.89;100.00
5988;BME280;3021;51.000;6.980;2023-01-31T06:19:41;66733.34;;;3.92;100.00
5988;BME280;3021;51.000;6.980;2023-01-31T06:22:07;66742.50;;;4.00;100.00
5988;BME280;3021;51.000;6.980;2023-01-31T06:24:32;66750.59;;;4.07;100.00
5988;BME280;3021;51.000;6.980;2023-01-31T06:26:58;66757.47;;;4.13;100.00
5988;BME280;3021;51.000;6.980;2023-01-31T06:29:23;66764.63;;;4.15;100.00
5988;BME280;3021;51.000;6.980;2023-01-31T06:31:48;66765.34;;;4.18;100.00
5988;BME280;3021;51.000;6.980;2023-01-31T06:34:14;66767.97;;;4.25;100.00
5988;BME280;3021;51.000;6.980;2023-01-31T06:36:39;66772.41;;;4.27;100.00
5988;BME280;3021;51.000;6.980;2023-01-31T06:39:05;66774.72;;;4.29;100.00
5988;BME280;3021;51.000;6.980;2023-01-31T06:41:30;66780.03;;;4.36;100.00
5988;BME280;3021;51.000;6.980;2023-01-31T06:43:55;66782.91;;;4.39;100.00
5988;BME280;3021;51.000;6.980;2023-01-31T06:46:21;66793.69;;;4.46;100.00
5988;BME280;3021;51.000;6.980;2023-01-31T06:48:46;66789.22;;;4.44;100.00
5988;BME280;3021;51.000;6.980;2023-01-31T06:51:15;66795.41;;;4.47;100.00
5988;BME280;3021;51.000;6.980;2023-01-31T06:53:41;66794.09;;;4.44;100.00
5988;BME280;3021;51.000;6.980;2023-01-31T06:56:07;66792.09;;;4.47;100.00
5988;BME280;3021;51.000;6.980;2023-01-31T06:58:32;66791.53;;;4.46;100.00
5988;BME280;3021;51.000;6.980;2023-01-31T07:01:06;66805.72;;;4.57;100.00
5988;BME280;3021;51.000;6.980;2023-01-31T07:03:31;66812.22;;;4.65;100.00
5988;BME280;3021;51.000;6.980;2023-01-31T07:05:57;66821.25;;;4.71;100.00
5988;BME280;3021;51.000;6.980;2023-01-31T07:08:22;66835.06;;;4.83;100.00
5988;BME280;3021;51.000;6.980;2023-01-31T07:10:47;66841.38;;;4.89;100.00
5988;BME280;3021;51.000;6.980;2023-01-31T07:13:13;66838.53;;;4.86;100.00
5988;BME280;3021;51.000;6.980;2023-01-31T07:15:39;66844.09;;;4.89;100.00
5988;BME280;3021;51.000;6.980;2023-01-31T07:18:05;66822.41;;;4.72;100.00
5988;BME280;3021;51.000;6.980;2023-01-31T07:20:30;66826.59;;;4.78;100.00
5988;BME280;3021;51.000;6.980;2023-01-31T07:22:57;66839.09;;;4.87;100.00
5988;BME280;3021;51.000;6.980;2023-01-31T07:25:23;66824.88;;;4.76;100.00
5988;BME280;3021;51.000;6.980;2023-01-31T07:27:49;66837.53;;;4.88;100.00
5988;BME280;3021;51.000;6.980;2023-01-31T07:30:14;66851.16;;;4.97;100.00
5988;BME280;3021;51.000;6.980;2023-01-31T07:32:39;66864.97;;;5.10;100.00
5988;BME280;3021;51.000;6.980;2023-01-31T07:35:05;66872.59;;;5.19;100.00
5988;BME280;3021;51.000;6.980;2023-01-31T07:37:31;66886.81;;;5.29;100.00
5988;BME280;3021;51.000;6.980;2023-01-31T07:39:56;66885.09;;;5.28;100.00
5988;BME280;3021;51.000;6.980;2023-01-31T07:42:21;66879.34;;;5.23;100.00
5988;BME280;3021;51.000;6.980;2023-01-31T07:44:47;66886.97;;;5.32;100.00
5988;BME280;3021;51.000;6.980;2023-01-31T07:47:12;66893.72;;;5.35;100.00
5988;BME280;3021;51.000;6.980;2023-01-31T07:49:37;66891.41;;;5.33;100.00
5988;BME280;3021;51.000;6.980;2023-01-31T07:52:03;66894.44;;;5.39;100.00
5988;BME280;3021;51.000;6.980;2023-01-31T07:54:28;66895.19;;;5.42;100.00
5988;BME280;3021;51.000;6.980;2023-01-31T07:56:54;66904.81;;;5.48;100.00
5988;BME280;3021;51.000;6.980;2023-01-31T07:59:19;66924.19;;;5.63;100.00
5988;BME280;3021;51.000;6.980;2023-01-31T08:01:44;66930.53;;;5.68;100.00
5988;BME280;3021;51.000;6.980;2023-01-31T08:04:28;66936.88;;;5.74;100.00
5988;BME280;3021;51.000;6.980;2023-01-31T08:06:54;66948.38;;;5.84;100.00
5988;BME280;3021;51.000;6.980;2023-01-31T08:09:20;66941.63;;;5.81;100.00
5988;BME280;3021;51.000;6.980;2023-01-31T08:11:46;66950.13;;;5.86;100.00
5988;BME280;3021;51.000;6.980;2023-01-31T08:14:11;66944.50;;;5.83;100.00
5988;BME280;3021;51.000;6.980;2023-01-31T08:16:37;66938.03;;;5.75;100.00
5988;BME280;3021;51.000;6.980;2023-01-31T08:19:02;66949.69;;;5.88;100.00
5988;BME280;3021;51.000;6.980;2023-01-31T08:21:28;66952.97;;;5.88;100.00
5988;BME280;3021;51.000;6.980;2023-01-31T08:23:53;66968.13;;;6.04;100.00
5988;BME280;3021;51.000;6.980;2023-01-31T08:26:20;66985.25;;;6.17;100.00
5988;BME280;3021;51.000;6.980;2023-01-31T08:28:47;66970.59;;;6.09;100.00
5988;BME280;3021;51.000;6.980;2023-01-31T08:31:15;66941.63;;;5.81;100.00
5988;BME280;3021;51.000;6.980;2023-01-31T08:33:41;66944.34;;;5.81;100.00
5988;BME280;3021;51.000;6.980;2023-01-31T08:36:08;66948.53;;;5.87;100.00
5988;BME280;3021;51.000;6.980;2023-01-31T08:38:34;66969.44;;;6.08;100.00
5988;BME280;3021;51.000;6.980;2023-01-31T08:40:59;66986.53;;;6.21;100.00
5988;BME280;3021;51.000;6.980;2023-01-31T08:43:24;67004.97;;;6.37;100.00
5988;BME280;3021;51.000;6.980;2023-01-31T08:45:50;66994.44;;;6.26;100.00
5988;BME280;3021;51.000;6.980;2023-01-31T08:48:15;67001.94;;;6.32;100.00
5988;BME280;3021;51.000;6.980;2023-01-31T08:50:40;67005.69;;;6.40;100.00
5988;BME280;3021;51.000;6.980;2023-01-31T08:53:06;67002.50;;;6.33;100.00
5988;BME280;3021;51.000;6.980;2023-01-31T08:55:33;66974.31;;;6.08;100.00
5988;BME280;3021;51.000;6.980;2023-01-31T08:57:59;66977.47;;;6.15;100.00
5988;BME280;3021;51.000;6.980;2023-01-31T09:00:26;66979.47;;;6.12;100.00
5988;BME280;3021;51.000;6.980;2023-01-31T09:02:57;66999.78;;;6.33;100.00
5988;BME280;3021;51.000;6.980;2023-01-31T09:05:24;67012.28;;;6.42;100.00
5988;BME280;3021;51.000;6.980;2023-01-31T09:07:50;67023.81;;;6.52;100.00
5988;BME280;3021;51.000;6.980;2023-01-31T09:10:17;67010.16;;;6.42;100.00
5988;BME280;3021;51.000;6.980;2023-01-31T09:12:42;67024.94;;;6.53;100.00
5988;BME280;3021;51.000;6.980;2023-01-31T09:15:08;67031.59;;;6.64;100.00
5988;BME280;3021;51.000;6.980;2023-01-31T09:17:33;67037.94;;;6.69;100.00
5988;BME280;3021;51.000;6.980;2023-01-31T09:19:59;67023.53;;;6.56;100.00
5988;BME280;3021;51.000;6.980;2023-01-31T09:22:29;66998.06;;;6.31;100.00
5988;BME280;3021;51.000;6.980;2023-01-31T09:24:54;66975.03;;;6.11;100.00
5988;BME280;3021;51.000;6.980;2023-01-31T09:27:20;66957.41;;;5.90;100.00
5988;BME280;3021;51.000;6.980;2023-01-31T09:29:45;66930.13;;;5.70;100.00
5988;BME280;3021;51.000;6.980;2023-01-31T09:32:10;66936.28;;;5.74;100.00
5988;BME280;3021;51.000;6.980;2023-01-31T09:34:35;66932.13;;;5.67;100.00
5988;BME280;3021;51.000;6.980;2023-01-31T09:37:01;66925.53;;;5.66;100.00
5988;BME280;3021;51.000;6.980;2023-01-31T09:39:26;66933.41;;;5.71;100.00
5988;BME280;3021;51.000;6.980;2023-01-31T09:42:00;66950.13;;;5.86;100.00
5988;BME280;3021;51.000;6.980;2023-01-31T09:44:38;66941.78;;;5.83;100.00
5988;BME280;3021;51.000;6.980;2023-01-31T09:47:23;66943.19;;;5.80;100.00
5988;BME280;3021;51.000;6.980;2023-01-31T09:50:03;66938.03;;;5.75;100.00
5988;BME280;3021;51.000;6.980;2023-01-31T09:52:30;66925.34;;;5.64;100.00
5988;BME280;3021;51.000;6.980;2023-01-31T09:54:56;66915.59;;;5.55;100.00
5988;BME280;3021;51.000;6.980;2023-01-31T10:00:28;66945.50;;;5.82;100.00
5988;BME280;3021;51.000;6.980;2023-01-31T10:03:11;66947.81;;;5.84;100.00
5988;BME280;3021;51.000;6.980;2023-01-31T10:10:56;66933.41;;;5.71;100.00
5988;BME280;3021;51.000;6.980;2023-01-31T10:13:28;66950.53;;;5.84;100.00
5988;BME280;3021;51.000;6.980;2023-01-31T10:16:00;66963.94;;;5.98;100.00
5988;BME280;3021;51.000;6.980;2023-01-31T10:18:31;66955.84;;;5.91;100.00
5988;BME280;3021;51.000;6.980;2023-01-31T10:21:06;66964.09;;;6.01;100.00
5988;BME280;3021;51.000;6.980;2023-01-31T10:23:39;66973.16;;;6.07;100.00
5988;BME280;3021;51.000;6.980;2023-01-31T10:26:12;66990.59;;;6.25;100.00
5988;BME280;3021;51.000;6.980;2023-01-31T10:28:46;67014.91;;;6.49;100.00
5988;BME280;3021;51.000;6.980;2023-01-31T10:39:04;67014.16;;;6.46;100.00
5988;BME280;3021;51.000;6.980;2023-01-31T10:41:42;67022.22;;;6.53;100.00
5988;BME280;3021;51.000;6.980;2023-01-31T10:44:20;67025.69;;;6.56;100.00
5988;BME280;3021;51.000;6.980;2023-01-31T10:46:47;67024.94;;;6.53;100.00
5988;BME280;3021;51.000;6.980;2023-01-31T10:49:13;67022.97;;;6.56;100.00
5988;BME280;3021;51.000;6.980;2023-01-31T10:51:57;67042.22;;;6.68;100.00
5988;BME280;3021;51.000;6.980;2023-01-31T10:56:57;67087.31;;;7.11;100.00
5988;BME280;3021;51.000;6.980;2023-01-31T10:59:32;67068.75;;;6.92;100.00
5988;BME280;3021;51.000;6.980;2023-01-31T11:01:59;67060.97;;;6.90;100.00
5988;BME280;3021;51.000;6.980;2023-01-31T11:06:59;67153.44;;;7.68;100.00
5988;BME280;3021;51.000;6.980;2023-01-31T11:09:28;67140.91;;;7.59;100.00
5988;BME280;3021;51.000;6.980;2023-01-31T11:11:57;67180.25;;;7.96;100.00
5988;BME280;3021;51.000;6.980;2023-01-31T11:14:23;67197.97;;;8.10;100.00
5988;BME280;3021;51.000;6.980;2023-01-31T11:16:55;67183.16;;;7.99;100.00
5988;BME280;3021;51.000;6.980;2023-01-31T11:21:53;67205.47;;;8.17;100.00
5988;BME280;3021;51.000;6.980;2023-01-31T11:24:25;67229.53;;;8.36;100.00
5988;BME280;3021;51.000;6.980;2023-01-31T11:27:13;67231.84;;;8.38;100.00
5988;BME280;3021;51.000;6.980;2023-01-31T11:29:47;67275.88;;;8.79;100.00
5988;BME280;3021;51.000;6.980;2023-01-31T11:32:19;67298.53;;;9.02;100.00
5988;BME280;3021;51.000;6.980;2023-01-31T11:34:58;67264.34;;;8.69;100.00
5988;BME280;3021;51.000;6.980;2023-01-31T11:37:24;67254.94;;;8.58;100.00
5988;BME280;3021;51.000;6.980;2023-01-31T11:43:05;67253.94;;;8.60;100.00
5988;BME280;3021;51.000;6.980;2023-01-31T11:45:33;67260.28;;;8.65;100.00
5988;BME280;3021;51.000;6.980;2023-01-31T11:48:39;67258.56;;;8.64;100.00
5988;BME280;3021;51.000;6.980;2023-01-31T11:51:05;67222.78;;;8.32;100.00
5988;BME280;3021;51.000;6.980;2023-01-31T11:53:46;67214.72;;;8.25;100.00
5988;BME280;3021;51.000;6.980;2023-01-31T11:58:44;67222.63;;;8.29;100.00
5988;BME280;3021;51.000;6.980;2023-01-31T12:01:16;67214.72;;;8.25;100.00
5988;BME280;3021;51.000;6.980;2023-01-31T12:03:54;67195.69;;;8.08;100.00
5988;BME280;3021;51.000;6.980;2023-01-31T12:06:39;67164.41;;;7.77;100.00
5988;BME280;3021;51.000;6.980;2023-01-31T12:09:17;67153.00;;;7.70;100.00
5988;BME280;3021;51.000;6.980;2023-01-31T12:11:51;67138.59;;;7.57;100.00
5988;BME280;3021;51.000;6.980;2023-01-31T12:14:18;67138.75;;;7.59;100.00
5988;BME280;3021;51.000;6.980;2023-01-31T12:16:45;67143.78;;;7.61;100.00
5988;BME280;3021;51.000;6.980;2023-01-31T12:22:03;67149.56;;;7.67;100.00
5988;BME280;3021;51.000;6.980;2023-01-31T12:27:25;67177.81;;;7.92;100.00
5988;BME280;3021;51.000;6.980;2023-01-31T12:40:21;67166.84;;;7.82;100.00
5988;BME280;3021;51.000;6.980;2023-01-31T12:45:48;67191.06;;;8.04;100.00
5988;BME280;3021;51.000;6.980;2023-01-31T12:51:07;67212.97;;;8.23;100.00
5988;BME280;3021;51.000;6.980;2023-01-31T12:53:45;67197.41;;;8.09;100.00
5988;BME280;3021;51.000;6.980;2023-01-31T13:01:55;67176.81;;;7.93;100.00
5988;BME280;3021;51.000;6.980;2023-01-31T13:04:38;67174.34;;;7.89;100.00
5988;BME280;3021;51.000;6.980;2023-01-31T13:09:47;67151.44;;;7.71;100.00
5988;BME280;3021;51.000;6.980;2023-01-31T13:12:20;67171.31;;;7.84;100.00
5988;BME280;3021;51.000;6.980;2023-01-31T13:15:37;67148.41;;;7.66;100.00
5988;BME280;3021;51.000;6.980;2023-01-31T13:17:38;67170.16;;;7.83;100.00
5988;BME280;3021;51.000;6.980;2023-01-31T13:28:11;67140.75;;;7.56;100.00
5988;BME280;3021;51.000;6.980;2023-01-31T13:30:59;67150.56;;;7.65;100.00
5988;BME280;3021;51.000;6.980;2023-01-31T13:33:35;67144.94;;;7.63;100.00
5988;BME280;3021;51.000;6.980;2023-01-31T13:36:20;67133.25;;;7.50;100.00
5988;BME280;3021;51.000;6.980;2023-01-31T13:38:47;67129.53;;;7.51;100.00
5988;BME280;3021;51.000;6.980;2023-01-31T13:41:25;67133.41;;;7.52;100.00
5988;BME280;3021;51.000;6.980;2023-01-31T13:43:51;67118.59;;;7.41;100.00
5988;BME280;3021;51.000;6.980;2023-01-31T13:46:20;67123.03;;;7.43;100.00
5988;BME280;3021;51.000;6.980;2023-01-31T13:48:57;67115.72;;;7.39;100.00
5988;BME280;3021;51.000;6.980;2023-01-31T13:51:29;67113.66;;;7.32;100.00
5988;BME280;3021;51.000;6.980;2023-01-31T13:54:04;67098.84;;;7.21;100.00
5988;BME280;3021;51.000;6.980;2023-01-31T13:56:33;67093.25;;;7.19;100.00
5988;BME280;3021;51.000;6.980;2023-01-31T13:58:59;67086.03;;;7.07;100.00
5988;BME280;3021;51.000;6.980;2023-01-31T14:01:33;67066.00;;;6.92;100.00
5988;BME280;3021;51.000;6.980;2023-01-31T14:07:13;67054.63;;;6.84;100.00
5988;BME280;3021;51.000;6.980;2023-01-31T14:14:43;67029.31;;;6.62;100.00
5988;BME280;3021;51.000;6.980;2023-01-31T14:32:47;67029.31;;;6.62;100.00
5988;BME280;3021;51.000;6.980;2023-01-31T14:38:09;67038.94;;;6.68;100.00
5988;BME280;3021;51.000;6.980;2023-01-31T14:40:54;67043.56;;;6.72;100.00
5988;BME280;3021;51.000;6.980;2023-01-31T14:46:19;67033.75;;;6.63;100.00
5988;BME280;3021;51.000;6.980;2023-01-31T14:49:11;67036.06;;;6.65;100.00
5988;BME280;3021;51.000;6.980;2023-01-31T14:57:21;67051.63;;;6.79;100.00
5988;BME280;3021;51.000;6.980;2023-01-31T14:59:59;67059.53;;;6.84;100.00
5988;BME280;3021;51.000;6.980;2023-01-31T15:05:06;67039.66;;;6.71;100.00
5988;BME280;3021;51.000;6.980;2023-01-31T15:07:33;67042.56;;;6.73;100.00
5988;BME280;3021;51.000;6.980;2023-01-31T15:09:59;67048.72;;;6.77;100.00
5988;BME280;3021;51.000;6.980;2023-01-31T15:12:50;67054.91;;;6.80;100.00
5988;BME280;3021;51.000;6.980;2023-01-31T15:15:38;67039.50;;;6.68;100.00
5988;BME280;3021;51.000;6.980;2023-01-31T15:18:15;67030.88;;;6.61;100.00
5988;BME280;3021;51.000;6.980;2023-01-31T15:20:44;67026.09;;;6.54;100.00
5988;BME280;3021;51.000;6.980;2023-01-31T15:23:18;67048.00;;;6.73;100.00
5988;BME280;3021;51.000;6.980;2023-01-31T15:25:46;67057.22;;;6.82;100.00
5988;BME280;3021;51.000;6.980;2023-01-31T15:28:21;67049.16;;;6.74;100.00
5988;BME280;3021;51.000;6.980;2023-01-31T15:30:49;67050.03;;;6.80;100.00
5988;BME280;3021;51.000;6.980;2023-01-31T15:33:35;67048.56;;;6.74;100.00
5988;BME280;3021;51.000;6.980;2023-01-31T15:38:54;67056.78;;;6.84;100.00
5988;BME280;3021;51.000;6.980;2023-01-31T15:41:24;67053.91;;;6.81;100.00
5988;BME280;3021;51.000;6.980;2023-01-31T15:43:55;67049.16;;;6.74;100.00
5988;BME280;3021;51.000;6.980;2023-01-31T15:46:30;67032.03;;;6.62;100.00
5988;BME280;3021;51.000;6.980;2023-01-31T15:48:57;67037.22;;;6.66;100.00
5988;BME280;3021;51.000;6.980;2023-01-31T15:51:24;67046.28;;;6.72;100.00